createdAt,value
2018-04-10T00:01:18.210Z,78.60
2018-04-10T00:03:47.408Z,79.50
2018-04-10T00:06:15.705Z,78.80
2018-04-10T00:08:44.032Z,78.60
2018-04-10T00:11:13.125Z,79.40
2018-04-10T00:13:41.517Z,79.40
2018-04-10T00:16:09.828Z,79.40
2018-04-10T00:18:38.129Z,78.70
2018-04-10T00:21:06.456Z,78.60
2018-04-10T00:23:34.840Z,78.20
2018-04-10T00:26:03.258Z,78.00
2018-04-10T00:28:31.581Z,78.40
2018-04-10T00:31:00.652Z,78.30
2018-04-10T00:33:28.983Z,78.30
2018-04-10T00:35:57.311Z,78.70
2018-04-10T00:38:25.636Z,79.40
2018-04-10T00:40:53.928Z,79.20
2018-04-10T00:43:22.280Z,78.80
2018-04-10T00:45:51.348Z,78.50
2018-04-10T00:48:19.690Z,78.50
2018-04-10T00:50:48.011Z,79.50
2018-04-10T00:53:28.191Z,79.50
2018-04-10T00:55:56.519Z,79.40
2018-04-10T00:58:25.616Z,79.50
2018-04-10T01:00:53.949Z,79.50
2018-04-10T01:03:23.041Z,79.40
2018-04-10T01:05:52.880Z,79.50
2018-04-10T01:08:21.172Z,79.40
2018-04-10T01:10:49.504Z,79.20
2018-04-10T01:13:18.564Z,79.50
2018-04-10T01:15:46.904Z,79.50
2018-04-10T01:18:15.208Z,79.00
2018-04-10T01:20:43.553Z,79.60
2018-04-10T01:23:11.897Z,79.40
2018-04-10T01:25:40.301Z,79.50
2018-04-10T01:28:08.681Z,79.50
2018-04-10T01:30:36.972Z,80.00
2018-04-10T01:33:05.297Z,80.80
2018-04-10T01:35:33.592Z,81.50
2018-04-10T01:38:02.018Z,81.50
2018-04-10T01:40:30.312Z,81.60
2018-04-10T01:42:58.687Z,81.00
2018-04-10T01:45:27.720Z,81.00
2018-04-10T01:47:56.051Z,80.90
2018-04-10T01:50:24.352Z,81.00
2018-04-10T01:52:52.682Z,80.60
2018-04-10T01:55:20.981Z,80.50
2018-04-10T01:57:50.172Z,79.90
2018-04-10T02:00:18.577Z,79.90
2018-04-10T02:02:46.918Z,79.80
2018-04-10T02:05:15.989Z,80.00
2018-04-10T02:07:44.300Z,80.00
2018-04-10T02:10:12.644Z,79.00
2018-04-10T02:12:41.931Z,78.80
2018-04-10T02:15:10.233Z,78.80
2018-04-10T02:17:38.532Z,79.20
2018-04-10T02:20:06.865Z,78.80
2018-04-10T02:22:35.928Z,79.40
2018-04-10T02:25:04.258Z,79.40
2018-04-10T02:27:32.556Z,79.40
2018-04-10T02:30:00.872Z,79.40
2018-04-10T02:32:29.224Z,79.40
2018-04-10T02:34:57.581Z,79.60
2018-04-10T02:37:25.872Z,80.40
2018-04-10T02:39:54.209Z,80.30
2018-04-10T02:42:23.304Z,79.80
2018-04-10T02:44:51.600Z,79.70
2018-04-10T02:47:19.929Z,80.40
2018-04-10T02:49:48.984Z,81.10
2018-04-10T02:52:17.307Z,81.10
2018-04-10T02:54:45.631Z,81.00
2018-04-10T02:57:13.932Z,81.10
2018-04-10T02:59:42.440Z,81.40
2018-04-10T03:02:10.735Z,81.30
2018-04-10T03:04:39.032Z,81.50
2018-04-10T03:07:07.464Z,81.60
2018-04-10T03:09:36.533Z,81.30
2018-04-10T03:12:04.829Z,81.30
2018-04-10T03:14:33.160Z,81.50
2018-04-10T03:17:01.509Z,81.50
2018-04-10T03:19:29.815Z,81.70
2018-04-10T03:21:58.168Z,81.90
2018-04-10T03:24:26.504Z,82.00
2018-04-10T03:26:55.566Z,82.00
2018-04-10T03:29:23.892Z,82.00
2018-04-10T03:31:52.193Z,82.30
2018-04-10T03:34:20.520Z,82.40
2018-04-10T03:36:49.594Z,83.00
2018-04-10T03:39:17.920Z,82.30
2018-04-10T03:41:46.975Z,82.50
2018-04-10T03:44:16.076Z,82.60
2018-04-10T03:46:44.410Z,82.50
2018-04-10T03:49:12.789Z,82.40
2018-04-10T03:51:42.781Z,82.00
2018-04-10T03:54:11.143Z,81.90
2018-04-10T03:56:40.229Z,82.90
2018-04-10T03:59:08.528Z,82.70
2018-04-10T04:01:36.857Z,84.50
2018-04-10T04:04:05.949Z,84.90
2018-04-10T04:06:34.244Z,84.90
2018-04-10T04:09:02.544Z,83.90
2018-04-10T04:11:30.868Z,85.10
2018-04-10T04:13:59.397Z,85.20
2018-04-10T04:16:40.365Z,85.50
2018-04-10T04:19:20.547Z,85.40
2018-04-10T04:21:56.508Z,85.80
2018-04-10T04:24:24.802Z,86.00
2018-04-10T04:26:53.120Z,85.80
2018-04-10T04:29:21.418Z,84.70
2018-04-10T04:31:51.424Z,85.40
2018-04-10T04:34:20.517Z,84.80
2018-04-10T04:36:48.812Z,84.80
2018-04-10T04:39:17.161Z,84.80
2018-04-10T04:41:45.456Z,84.70
2018-04-10T04:44:13.801Z,84.60
2018-04-10T04:46:42.116Z,84.50
2018-04-10T04:49:10.464Z,84.50
2018-04-10T04:51:38.776Z,84.60
2018-04-10T04:54:07.102Z,84.40
2018-04-10T04:56:35.428Z,84.10
2018-04-10T04:59:03.724Z,83.80
2018-04-10T05:01:32.032Z,83.40
2018-04-10T05:04:00.364Z,83.10
2018-04-10T05:06:29.425Z,82.70
2018-04-10T05:08:57.873Z,82.60
2018-04-10T05:11:26.940Z,83.70
2018-04-10T05:13:55.477Z,83.10
2018-04-10T05:16:23.776Z,83.20
2018-04-10T05:18:52.069Z,83.00
2018-04-10T05:21:20.400Z,82.80
2018-04-10T05:23:48.725Z,83.10
2018-04-10T05:26:17.795Z,82.70
2018-04-10T05:28:46.124Z,82.70
2018-04-10T05:31:14.457Z,82.40
2018-04-10T05:33:42.764Z,82.30
2018-04-10T05:36:11.080Z,82.20
2018-04-10T05:38:39.430Z,82.30
2018-04-10T05:41:07.729Z,82.10
2018-04-10T05:43:36.056Z,82.50
2018-04-10T05:46:05.116Z,81.30
2018-04-10T05:48:33.453Z,81.30
2018-04-10T05:51:01.787Z,80.90
2018-04-10T05:53:30.884Z,80.50
2018-04-10T05:55:59.184Z,80.50
2018-04-10T05:58:27.527Z,80.20
2018-04-10T06:00:55.833Z,80.00
2018-04-10T06:03:24.249Z,80.50
2018-04-10T06:05:52.553Z,79.90
2018-04-10T06:08:20.880Z,79.30
2018-04-10T06:10:49.208Z,79.10
2018-04-10T06:13:17.500Z,79.00
2018-04-10T06:15:45.833Z,79.70
2018-04-10T06:18:14.916Z,79.00
2018-04-10T06:20:43.268Z,79.00
2018-04-10T06:23:11.651Z,78.90
2018-04-10T06:25:39.961Z,78.50
2018-04-10T06:28:09.053Z,78.60
2018-04-10T06:30:37.546Z,78.60
2018-04-10T06:33:05.839Z,77.90
2018-04-10T06:35:34.150Z,77.60
2018-04-10T06:38:02.479Z,77.00
2018-04-10T06:40:31.554Z,76.20
2018-04-10T06:42:59.885Z,76.10
2018-04-10T06:45:28.185Z,76.40
2018-04-10T06:47:56.516Z,76.60
2018-04-10T06:50:25.582Z,76.60
2018-04-10T06:52:54.107Z,76.60
2018-04-10T06:55:22.402Z,75.70
2018-04-10T06:57:50.701Z,75.60
2018-04-10T07:00:19.044Z,75.30
2018-04-10T07:02:48.141Z,75.70
2018-04-10T07:05:16.486Z,75.70
2018-04-10T07:07:44.812Z,75.50
2018-04-10T07:10:13.157Z,74.60
2018-04-10T07:12:41.480Z,74.40
2018-04-10T07:15:10.588Z,72.90
2018-04-10T07:17:39.654Z,73.30
2018-04-10T07:20:07.976Z,73.30
2018-04-10T07:22:36.305Z,72.80
2018-04-10T07:25:04.633Z,72.50
2018-04-10T07:27:32.919Z,71.90
2018-04-10T07:30:02.408Z,71.30
2018-04-10T07:32:30.705Z,71.30
2018-04-10T07:34:59.006Z,70.30
2018-04-10T07:37:27.331Z,69.00
2018-04-10T07:39:55.682Z,69.30
2018-04-10T07:42:23.969Z,69.40
2018-04-10T07:44:53.029Z,70.80
2018-04-10T07:47:21.360Z,70.80
2018-04-10T07:49:49.694Z,70.70
2018-04-10T07:52:18.784Z,70.50
2018-04-10T07:54:47.071Z,70.50
2018-04-10T07:57:15.406Z,68.70
2018-04-10T07:59:44.469Z,69.30
2018-04-10T08:02:12.823Z,69.20
2018-04-10T08:04:41.904Z,68.60
2018-04-10T08:07:10.228Z,68.60
2018-04-10T08:09:38.532Z,67.90
2018-04-10T08:12:07.609Z,66.40
2018-04-10T08:14:35.945Z,66.20
2018-04-10T08:17:04.242Z,66.90
2018-04-10T08:19:32.537Z,67.60
2018-04-10T08:22:00.860Z,65.90
2018-04-10T08:24:29.159Z,65.20
2018-04-10T08:26:57.493Z,65.20
2018-04-10T08:29:26.589Z,65.30
2018-04-10T08:31:54.875Z,65.20
2018-04-10T08:34:23.227Z,64.70
2018-04-10T08:36:52.273Z,63.90
2018-04-10T08:39:20.599Z,63.90
2018-04-10T08:41:48.894Z,64.60
2018-04-10T08:44:18.049Z,64.20
2018-04-10T08:46:46.336Z,63.90
2018-04-10T08:49:14.680Z,61.30
2018-04-10T08:51:42.994Z,62.50
2018-04-10T08:54:11.298Z,62.80
2018-04-10T08:56:39.626Z,62.80
2018-04-10T08:59:07.918Z,61.60
2018-04-10T09:01:36.536Z,62.60
2018-04-10T09:04:04.828Z,62.70
2018-04-10T09:06:33.130Z,61.20
2018-04-10T09:09:01.455Z,61.80
2018-04-10T09:11:29.735Z,61.40
2018-04-10T09:13:58.073Z,60.70
2018-04-10T09:16:26.362Z,59.80
2018-04-10T09:18:54.676Z,59.20
2018-04-10T09:21:22.977Z,59.50
2018-04-10T09:23:51.306Z,59.40
2018-04-10T09:26:19.605Z,59.00
2018-04-10T09:28:48.693Z,60.50
2018-04-10T09:31:16.995Z,60.50
2018-04-10T09:33:45.477Z,58.70
2018-04-10T09:36:13.781Z,59.20
2018-04-10T09:38:42.079Z,59.10
2018-04-10T09:41:10.406Z,59.80
2018-04-10T09:43:38.803Z,59.80
2018-04-10T09:46:07.067Z,59.50
2018-04-10T09:48:35.393Z,59.80
2018-04-10T09:51:03.695Z,59.40
2018-04-10T09:53:32.020Z,58.80
2018-04-10T09:56:00.314Z,59.10
2018-04-10T09:58:28.641Z,58.10
2018-04-10T10:00:57.732Z,58.40
2018-04-10T10:03:26.428Z,58.40
2018-04-10T10:05:54.726Z,58.00
2018-04-10T10:08:23.064Z,58.70
2018-04-10T10:10:51.361Z,58.00
2018-04-10T10:13:19.693Z,58.90
2018-04-10T10:15:47.985Z,58.10
2018-04-10T10:18:17.084Z,57.90
2018-04-10T10:20:45.368Z,57.90
2018-04-10T10:23:13.708Z,57.40
2018-04-10T10:25:42.801Z,57.70
2018-04-10T10:28:11.099Z,57.70
2018-04-10T10:30:39.453Z,56.00
2018-04-10T10:33:07.753Z,56.60
2018-04-10T10:35:36.864Z,55.80
2018-04-10T10:38:05.191Z,56.70
2018-04-10T10:40:33.513Z,57.30
2018-04-10T10:43:01.809Z,56.20
2018-04-10T10:45:30.132Z,54.80
2018-04-10T10:47:58.459Z,55.20
2018-04-10T10:50:27.544Z,54.70
2018-04-10T10:52:55.837Z,54.70
2018-04-10T10:55:24.169Z,55.60
2018-04-10T10:57:52.465Z,56.00
2018-04-10T11:00:20.788Z,55.30
2018-04-10T11:02:49.868Z,54.20
2018-04-10T11:05:18.174Z,54.20
2018-04-10T11:07:46.539Z,53.80
2018-04-10T11:10:15.605Z,51.80
2018-04-10T11:12:43.900Z,51.80
2018-04-10T11:15:12.520Z,51.90
2018-04-10T11:17:40.821Z,50.90
2018-04-10T11:20:09.167Z,50.30
2018-04-10T11:22:39.151Z,52.10
2018-04-10T11:25:07.484Z,52.00
2018-04-10T11:27:35.772Z,52.70
2018-04-10T11:30:04.110Z,51.70
2018-04-10T11:32:32.436Z,53.20
2018-04-10T11:35:00.973Z,52.70
2018-04-10T11:37:29.260Z,52.20
2018-04-10T11:39:57.552Z,51.40
2018-04-10T11:42:25.867Z,52.50
2018-04-10T11:44:54.170Z,52.10
2018-04-10T11:47:22.722Z,52.90
2018-04-10T11:49:50.992Z,51.60
2018-04-10T11:52:19.296Z,52.40
2018-04-10T11:54:47.617Z,52.20
2018-04-10T11:57:15.924Z,51.90
2018-04-10T11:59:44.208Z,52.20
2018-04-10T12:02:12.562Z,51.70
2018-04-10T12:04:40.862Z,51.40
2018-04-10T12:07:09.157Z,50.90
2018-04-10T12:09:37.497Z,50.90
2018-04-10T12:12:05.797Z,50.50
2018-04-10T12:14:34.124Z,50.30
2018-04-10T12:17:02.421Z,49.90
2018-04-10T12:19:30.717Z,51.40
2018-04-10T12:21:59.053Z,49.70
2018-04-10T12:24:28.140Z,50.50
2018-04-10T12:26:56.436Z,50.40
2018-04-10T12:29:24.761Z,49.80
2018-04-10T12:31:53.053Z,49.90
2018-04-10T12:34:21.388Z,49.50
2018-04-10T12:36:50.446Z,48.70
2018-04-10T12:39:18.736Z,48.70
2018-04-10T12:41:47.066Z,49.20
2018-04-10T12:44:15.361Z,49.90
2018-04-10T12:46:43.692Z,48.70
2018-04-10T12:49:11.988Z,49.10
2018-04-10T12:51:40.276Z,49.70
2018-04-10T12:54:08.653Z,49.40
2018-04-10T12:56:37.172Z,49.30
2018-04-10T12:59:05.558Z,49.50
2018-04-10T13:01:33.972Z,48.40
2018-04-10T13:04:02.306Z,49.30
2018-04-10T13:06:30.625Z,49.30
2018-04-10T13:09:00.020Z,48.70
2018-04-10T13:11:28.356Z,48.70
2018-04-10T13:13:57.520Z,48.30
2018-04-10T13:16:25.886Z,48.30
2018-04-10T13:18:54.300Z,44.30
2018-04-10T13:21:22.612Z,44.50
2018-04-10T13:23:50.931Z,43.60
2018-04-10T13:26:19.260Z,43.80
2018-04-10T13:28:47.540Z,43.90
2018-04-10T13:31:16.061Z,42.90
2018-04-10T13:33:44.429Z,41.50
2018-04-10T13:36:12.852Z,42.30
2018-04-10T13:38:41.430Z,42.60
2018-04-10T13:41:10.189Z,42.10
2018-04-10T13:43:39.566Z,43.20
2018-04-10T13:46:08.836Z,41.50
2018-04-10T13:48:38.064Z,41.50
2018-04-10T13:51:06.587Z,43.40
2018-04-10T13:53:35.053Z,41.90
2018-04-10T13:56:03.512Z,42.50
2018-04-10T13:58:32.193Z,43.30
2018-04-10T14:01:00.768Z,42.50
2018-04-10T14:03:29.220Z,43.80
2018-04-10T14:05:57.794Z,43.00
2018-04-10T14:08:26.105Z,41.60
2018-04-10T14:10:54.531Z,42.40
2018-04-10T14:13:22.813Z,42.80
2018-04-10T14:15:51.139Z,42.80
2018-04-10T14:18:19.465Z,43.00
2018-04-10T14:20:48.659Z,43.30
2018-04-10T14:23:17.152Z,43.30
2018-04-10T14:25:45.443Z,42.10
2018-04-10T14:28:13.756Z,42.60
2018-04-10T14:30:42.076Z,43.00
2018-04-10T14:33:10.368Z,42.30
2018-04-10T14:35:38.841Z,43.40
2018-04-10T14:38:07.136Z,43.00
2018-04-10T14:40:35.452Z,42.90
2018-04-10T14:43:03.786Z,43.20
2018-04-10T14:45:32.117Z,44.00
2018-04-10T14:48:01.421Z,43.00
2018-04-10T14:50:29.759Z,43.00
2018-04-10T14:52:58.838Z,43.80
2018-04-10T14:55:27.157Z,43.80
2018-04-10T14:57:55.441Z,44.30
2018-04-10T15:00:23.757Z,45.10
2018-04-10T15:02:52.085Z,45.90
2018-04-10T15:05:21.168Z,46.10
2018-04-10T15:07:49.465Z,46.10
2018-04-10T15:10:17.775Z,44.70
2018-04-10T15:12:46.065Z,45.20
2018-04-10T15:15:14.381Z,45.00
2018-04-10T15:17:42.669Z,45.00
2018-04-10T15:20:10.996Z,44.50
2018-04-10T15:22:39.465Z,45.00
2018-04-10T15:25:07.757Z,45.80
2018-04-10T15:27:36.044Z,46.10
2018-04-10T15:30:04.375Z,45.60
2018-04-10T15:32:32.673Z,45.60
2018-04-10T15:35:01.006Z,45.60
2018-04-10T15:37:29.315Z,44.00
2018-04-10T15:39:58.381Z,42.30
2018-04-10T15:42:26.660Z,42.30
2018-04-10T15:44:55.165Z,41.90
2018-04-10T15:47:23.498Z,42.00
2018-04-10T15:49:51.780Z,42.00
2018-04-10T15:52:20.103Z,42.20
2018-04-10T15:54:48.380Z,42.60
2018-04-10T15:57:16.692Z,43.10
2018-04-10T15:59:44.980Z,42.30
2018-04-10T16:02:13.294Z,41.30
2018-04-10T16:04:41.573Z,40.90
2018-04-10T16:07:10.681Z,40.10
2018-04-10T16:09:39.757Z,41.20
2018-04-10T16:12:08.164Z,41.20
2018-04-10T16:14:36.456Z,41.10
2018-04-10T16:17:04.789Z,41.90
2018-04-10T16:19:33.080Z,41.40
2018-04-10T16:22:01.576Z,41.70
2018-04-10T16:24:29.866Z,41.00
2018-04-10T16:26:58.145Z,40.90
2018-04-10T16:29:26.468Z,39.60
2018-04-10T16:31:54.751Z,39.60
2018-04-10T16:34:23.108Z,40.40
2018-04-10T16:36:51.414Z,40.40
2018-04-10T16:39:19.730Z,40.70
2018-04-10T16:41:48.785Z,41.20
2018-04-10T16:44:17.091Z,40.40
2018-04-10T16:46:45.380Z,41.20
2018-04-10T16:49:13.696Z,41.70
2018-04-10T16:51:42.012Z,42.40
2018-04-10T16:54:10.337Z,42.60
2018-04-10T16:56:38.661Z,42.00
2018-04-10T16:59:07.718Z,42.20
2018-04-10T17:01:36.068Z,42.20
2018-04-10T17:04:04.340Z,42.70
2018-04-10T17:06:32.632Z,42.40
2018-04-10T17:09:00.945Z,42.60
2018-04-10T17:11:29.233Z,42.80
2018-04-10T17:13:57.682Z,43.10
2018-04-10T17:16:25.955Z,44.00
2018-04-10T17:18:54.285Z,43.70
2018-04-10T17:21:22.580Z,44.10
2018-04-10T17:23:51.211Z,44.30
2018-04-10T17:26:20.296Z,44.70
2018-04-10T17:28:48.572Z,44.70
2018-04-10T17:31:16.894Z,45.00
2018-04-10T17:33:45.516Z,45.20
2018-04-10T17:36:13.801Z,44.80
2018-04-10T17:38:42.085Z,45.20
2018-04-10T17:41:10.408Z,46.40
2018-04-10T17:43:38.688Z,46.90
2018-04-10T17:46:07.033Z,47.00
2018-04-10T17:48:35.352Z,47.30
2018-04-10T17:51:04.433Z,47.60
2018-04-10T17:53:32.711Z,47.00
2018-04-10T17:56:01.035Z,46.60
2018-04-10T17:58:29.347Z,46.00
2018-04-10T18:00:57.669Z,46.20
2018-04-10T18:03:26.053Z,46.80
2018-04-10T18:05:54.368Z,45.30
2018-04-10T18:08:22.760Z,46.10
2018-04-10T18:10:51.044Z,46.60
2018-04-10T18:13:19.333Z,47.10
2018-04-10T18:15:47.649Z,47.90
2018-04-10T18:18:15.970Z,48.50
2018-04-10T18:20:44.259Z,48.90
2018-04-10T18:23:12.593Z,49.20
2018-04-10T18:25:40.876Z,49.20
2018-04-10T18:28:09.196Z,49.80
2018-04-10T18:30:37.492Z,49.50
2018-04-10T18:33:05.781Z,50.30
2018-04-10T18:35:34.095Z,49.60
2018-04-10T18:38:02.376Z,50.10
2018-04-10T18:40:31.901Z,50.70
2018-04-10T18:43:00.190Z,50.40
2018-04-10T18:45:28.469Z,50.40
2018-04-10T18:47:56.801Z,50.80
2018-04-10T18:50:25.116Z,50.40
2018-04-10T18:52:53.412Z,50.60
2018-04-10T18:55:21.728Z,50.80
2018-04-10T18:57:50.012Z,50.80
2018-04-10T19:00:18.327Z,50.20
2018-04-10T19:02:46.649Z,50.20
2018-04-10T19:05:14.928Z,50.50
2018-04-10T19:07:43.254Z,50.50
2018-04-10T19:10:12.341Z,50.40
2018-04-10T19:12:40.656Z,50.40
2018-04-10T19:15:09.051Z,50.40
2018-04-10T19:17:37.342Z,50.60
2018-04-10T19:20:05.806Z,50.70
2018-04-10T19:22:34.877Z,50.90
2018-04-10T19:25:03.191Z,50.80
2018-04-10T19:27:31.522Z,50.60
2018-04-10T19:30:00.606Z,50.00
2018-04-10T19:32:28.932Z,49.90
2018-04-10T19:34:57.228Z,49.90
2018-04-10T19:37:25.569Z,50.50
2018-04-10T19:39:53.893Z,52.40
2018-04-10T19:42:22.200Z,53.20
2018-04-10T19:44:50.520Z,54.00
2018-04-10T19:47:20.044Z,53.90
2018-04-10T19:49:48.337Z,54.80
2018-04-10T19:52:16.630Z,56.60
2018-04-10T19:54:44.966Z,57.80
2018-04-10T19:57:13.260Z,58.30
2018-04-10T19:59:41.561Z,57.50
2018-04-10T20:02:09.977Z,56.90
2018-04-10T20:04:39.070Z,58.20
2018-04-10T20:07:07.394Z,57.50
2018-04-10T20:09:35.761Z,58.10
2018-04-10T20:12:04.053Z,59.10
2018-04-10T20:14:32.384Z,59.40
2018-04-10T20:17:00.700Z,59.90
2018-04-10T20:19:28.993Z,60.70
2018-04-10T20:21:57.489Z,61.20
2018-04-10T20:24:25.801Z,61.70
2018-04-10T20:26:54.177Z,61.90
2018-04-10T20:29:22.469Z,62.10
2018-04-10T20:31:50.788Z,62.50
2018-04-10T20:34:19.116Z,62.90
2018-04-10T20:36:47.405Z,63.00
2018-04-10T20:39:15.719Z,62.90
2018-04-10T20:41:44.040Z,62.90
2018-04-10T20:44:13.140Z,62.40
2018-04-10T20:46:41.757Z,62.40
2018-04-10T20:49:10.068Z,63.00
2018-04-10T20:51:38.392Z,63.20
2018-04-10T20:54:07.514Z,63.90
2018-04-10T20:56:36.600Z,64.10
2018-04-10T20:59:04.936Z,64.10
2018-04-10T21:01:34.023Z,62.90
2018-04-10T21:04:02.351Z,62.90
2018-04-10T21:06:31.749Z,63.30
2018-04-10T21:09:00.044Z,63.10
2018-04-10T21:11:28.336Z,63.40
2018-04-10T21:13:56.668Z,63.50
2018-04-10T21:16:26.468Z,63.00
2018-04-10T21:18:54.796Z,63.00
2018-04-10T21:21:23.909Z,63.00
2018-04-10T21:23:52.219Z,62.40
2018-04-10T21:26:20.556Z,62.10
2018-04-10T21:28:49.613Z,62.80
2018-04-10T21:31:17.904Z,62.70
2018-04-10T21:33:46.451Z,63.10
2018-04-10T21:36:14.736Z,63.10
2018-04-10T21:38:43.028Z,63.10
2018-04-10T21:41:11.558Z,63.50
2018-04-10T21:43:39.849Z,63.60
2018-04-10T21:46:08.190Z,62.60
2018-04-10T21:48:36.656Z,62.20
2018-04-10T21:51:04.965Z,61.80
2018-04-10T21:53:34.241Z,61.70
2018-04-10T21:56:02.541Z,62.30
2018-04-10T21:58:31.581Z,62.80
2018-04-10T22:00:59.892Z,62.80
2018-04-10T22:03:28.218Z,63.20
2018-04-10T22:05:56.536Z,63.50
2018-04-10T22:08:24.941Z,63.90
2018-04-10T22:10:53.269Z,64.60
2018-04-10T22:13:22.323Z,65.10
2018-04-10T22:15:50.753Z,65.10
2018-04-10T22:18:19.047Z,65.70
2018-04-10T22:20:47.368Z,66.10
2018-04-10T22:23:15.660Z,66.20
2018-04-10T22:25:43.989Z,66.30
2018-04-10T22:28:13.079Z,66.50
2018-04-10T22:30:41.516Z,66.50
2018-04-10T22:33:10.549Z,67.60
2018-04-10T22:35:38.842Z,67.50
2018-04-10T22:38:07.246Z,68.10
2018-04-10T22:40:35.546Z,68.30
2018-04-10T22:43:03.848Z,68.00
2018-04-10T22:45:32.168Z,67.90
2018-04-10T22:48:00.461Z,68.20
2018-04-10T22:50:28.789Z,68.10
2018-04-10T22:52:57.117Z,68.50
2018-04-10T22:55:26.357Z,69.20
2018-04-10T22:57:55.422Z,69.20
2018-04-10T23:00:35.708Z,69.20
2018-04-10T23:03:03.765Z,69.20
2018-04-10T23:05:32.829Z,69.70
2018-04-10T23:08:01.157Z,69.70
2018-04-10T23:10:29.454Z,69.90
2018-04-10T23:12:57.781Z,70.10
2018-04-10T23:15:26.104Z,70.40
2018-04-10T23:17:55.209Z,71.10
2018-04-10T23:20:23.541Z,71.10
2018-04-10T23:22:51.833Z,71.20
2018-04-10T23:25:21.021Z,71.40
2018-04-10T23:27:49.348Z,71.40
2018-04-10T23:30:17.642Z,71.30
2018-04-10T23:32:45.936Z,71.90
2018-04-10T23:35:14.265Z,72.10
2018-04-10T23:37:43.333Z,72.40
2018-04-10T23:40:11.661Z,72.30
2018-04-10T23:42:39.972Z,73.00
2018-04-10T23:45:08.313Z,72.80
2018-04-10T23:47:36.618Z,73.00
2018-04-10T23:50:04.984Z,73.20
2018-04-10T23:52:33.309Z,72.90
2018-04-10T23:55:02.405Z,73.50
2018-04-10T23:57:30.696Z,73.50
2018-04-10T23:59:59.023Z,73.60
